Time;durP1;ratioP1;P1;durP2;ratioP2;P2;SDS_P1;SDS_P2;PMS_P1;PMS_P2;Temp;Humidity;BMP_temperature;BMP_pressure;BME280_temperature;BME280_humidity;BME280_pressure;Samples;Min_cycle;Max_cycle;Signal;HPM_P1;HPM_P2
2023/12/11 00:00:49;;;;;;;0.80;0.60;;;;;;;20.93;38.04;98852.94;4589847;27;20028;-61
2023/12/11 00:03:00;;;;;;;1.70;0.80;;;;;;;20.93;37.76;98850.06;4588103;27;20050;-61
2023/12/11 00:05:10;;;;;;;1.45;0.70;;;;;;;20.92;38.35;98848.41;4589230;27;20114;-61
2023/12/11 00:07:20;;;;;;;2.20;0.70;;;;;;;20.91;38.22;98853.34;4588132;27;20046;-61
2023/12/11 00:09:31;;;;;;;0.98;0.50;;;;;;;20.92;38.12;98857.84;4573648;27;20404;-61
2023/12/11 00:11:41;;;;;;;1.02;0.57;;;;;;;20.92;37.96;98857.84;4589192;27;20036;-61
2023/12/11 00:13:52;;;;;;;0.63;0.50;;;;;;;20.92;37.68;98857.00;4588167;27;20031;-61
2023/12/11 00:16:02;;;;;;;1.63;0.88;;;;;;;20.92;37.90;98852.09;4586339;27;20031;-61
2023/12/11 00:18:13;;;;;;;1.83;0.82;;;;;;;20.92;38.01;98852.09;4586780;27;20485;-61
2023/12/11 00:20:23;;;;;;;0.93;0.60;;;;;;;20.92;37.94;98851.28;4587159;27;20059;-61
2023/12/11 00:22:34;;;;;;;1.58;0.80;;;;;;;20.91;37.70;98850.47;4587760;27;20046;-61
2023/12/11 00:24:44;;;;;;;0.85;0.63;;;;;;;20.91;37.69;98853.34;4588693;27;20153;-61
2023/12/11 00:26:54;;;;;;;2.20;0.82;;;;;;;20.91;37.75;98853.34;4587191;27;20062;-61
2023/12/11 00:29:05;;;;;;;2.42;0.90;;;;;;;20.92;37.53;98859.88;4587859;27;20079;-61
2023/12/11 00:31:15;;;;;;;1.50;0.90;;;;;;;20.90;37.54;98851.69;4587193;27;20042;-61
2023/12/11 00:33:26;;;;;;;1.33;0.80;;;;;;;20.90;37.69;98848.81;4586251;27;20024;-61
2023/12/11 00:35:36;;;;;;;1.38;0.70;;;;;;;20.89;37.68;98855.78;4587342;27;20503;-61
2023/12/11 00:37:47;;;;;;;2.35;0.80;;;;;;;20.90;37.51;98857.41;4587251;27;20044;-61
2023/12/11 00:39:58;;;;;;;2.08;1.02;;;;;;;20.90;37.75;98862.34;4586328;27;20044;-61
2023/12/11 00:42:09;;;;;;;0.98;0.60;;;;;;;20.89;38.08;98861.53;4572199;27;20032;-61
2023/12/11 00:44:19;;;;;;;1.27;0.70;;;;;;;20.89;37.59;98864.38;4570713;27;20041;-61
2023/12/11 00:46:29;;;;;;;1.33;0.65;;;;;;;20.90;37.76;98857.41;4588585;27;21148;-61
2023/12/11 00:48:40;;;;;;;1.65;0.80;;;;;;;20.90;38.07;98868.88;4574476;27;20167;-61
2023/12/11 00:50:51;;;;;;;1.88;0.75;;;;;;;20.90;38.17;98856.63;4576756;27;20579;-61
2023/12/11 00:53:01;;;;;;;1.63;0.90;;;;;;;20.89;38.27;98867.25;4587291;27;20136;-61
2023/12/11 00:55:12;;;;;;;1.15;0.68;;;;;;;20.88;38.04;98868.50;4587376;27;20024;-61
2023/12/11 00:57:23;;;;;;;1.95;0.80;;;;;;;20.88;38.24;98865.63;4587531;27;20480;-61
2023/12/11 00:59:33;;;;;;;1.98;0.75;;;;;;;20.88;38.31;98868.50;4587271;27;20031;-61
2023/12/11 01:01:44;;;;;;;2.25;0.85;;;;;;;20.88;38.01;98871.38;4589089;27;20036;-61
2023/12/11 01:03:54;;;;;;;1.98;0.95;;;;;;;20.88;38.31;98879.97;4588181;27;20042;-61
2023/12/11 01:06:05;;;;;;;3.00;1.00;;;;;;;20.88;38.04;98870.53;4587177;27;20043;-61
2023/12/11 01:08:15;;;;;;;2.33;0.90;;;;;;;20.87;38.18;98869.72;4588394;27;20059;-61
2023/12/11 01:10:25;;;;;;;2.72;0.90;;;;;;;20.88;37.78;98876.28;4585140;27;20020;-61
2023/12/11 01:12:36;;;;;;;2.58;1.00;;;;;;;20.88;37.86;98882.00;4577355;27;20074;-61
2023/12/11 01:14:47;;;;;;;1.67;0.80;;;;;;;20.87;38.10;98878.31;4586765;27;20075;-61
2023/12/11 01:16:57;;;;;;;1.95;0.85;;;;;;;20.87;37.80;98881.19;4587828;27;20043;-61
2023/12/11 01:19:08;;;;;;;1.38;0.75;;;;;;;20.87;37.86;98875.44;4586565;27;20435;-61
2023/12/11 01:21:18;;;;;;;2.42;0.88;;;;;;;20.87;37.53;98886.91;4587412;27;20070;-61
2023/12/11 01:23:29;;;;;;;1.55;0.70;;;;;;;20.87;37.86;98898.38;4585628;27;20028;-61
2023/12/11 01:25:39;;;;;;;2.80;0.88;;;;;;;20.87;37.54;98897.59;4572572;27;20047;-61
2023/12/11 01:27:49;;;;;;;2.13;0.93;;;;;;;20.86;37.67;98893.91;4586512;27;20088;-61
2023/12/11 01:30:00;;;;;;;2.60;0.80;;;;;;;20.87;38.02;98903.31;4585766;27;20528;-61
2023/12/11 01:32:10;;;;;;;2.97;0.90;;;;;;;20.87;37.93;98904.13;4585340;27;20036;-61
2023/12/11 01:34:21;;;;;;;2.03;0.80;;;;;;;20.87;37.89;98909.06;4587289;27;20043;-61
2023/12/11 01:36:31;;;;;;;1.73;1.05;;;;;;;20.87;37.59;98906.19;4589145;27;20523;-61
2023/12/11 01:38:42;;;;;;;2.22;0.80;;;;;;;20.87;37.61;98914.78;4575599;27;20115;-62
2023/12/11 01:40:52;;;;;;;2.58;0.93;;;;;;;20.87;37.85;98921.31;4566098;27;20087;-61
2023/12/11 01:43:17;;;;;;;1.83;0.88;;;;;;;20.87;37.73;98909.84;4585737;27;20061;-61
2023/12/11 01:45:28;;;;;;;2.90;0.93;;;;;;;20.86;37.22;98916.00;4586746;27;20055;-61
2023/12/11 01:47:39;;;;;;;2.00;0.80;;;;;;;20.85;37.46;98912.34;4584284;27;20162;-61
2023/12/11 01:49:49;;;;;;;2.45;1.10;;;;;;;20.86;37.09;98919.69;4585465;27;20040;-61
2023/12/11 01:52:00;;;;;;;3.33;0.90;;;;;;;20.85;37.27;98923.81;4586135;27;20044;-61
2023/12/11 01:54:10;;;;;;;1.95;0.90;;;;;;;20.86;36.77;98918.88;4585967;27;20480;-61
2023/12/11 01:56:21;;;;;;;2.40;1.10;;;;;;;20.85;36.99;98918.06;4566806;27;20118;-61
2023/12/11 01:58:32;;;;;;;3.10;0.90;;;;;;;20.85;36.86;98918.06;4584498;27;20095;-61
2023/12/11 02:00:43;;;;;;;2.60;1.00;;;;;;;20.86;36.97;98919.69;4587333;27;20036;-61
2023/12/11 02:02:53;;;;;;;1.88;1.10;;;;;;;20.85;36.76;98918.06;4586473;27;20050;-61
2023/12/11 02:05:04;;;;;;;1.77;0.90;;;;;;;20.86;37.16;98913.97;4585754;27;20032;-61
2023/12/11 02:07:14;;;;;;;1.98;0.90;;;;;;;20.86;36.85;98901.66;4584660;27;20416;-61
2023/12/11 02:09:28;;;;;;;2.38;0.90;;;;;;;20.85;37.14;98906.59;4571543;27;20452;-61
2023/12/11 02:11:38;;;;;;;2.90;1.10;;;;;;;20.86;36.79;98913.13;4586332;27;20043;-61
2023/12/11 02:13:49;;;;;;;1.92;0.70;;;;;;;20.85;36.79;98906.59;4585529;27;20039;-61
2023/12/11 02:15:59;;;;;;;2.17;0.85;;;;;;;20.85;37.02;98906.59;4584861;27;20105;-61
2023/12/11 02:18:11;;;;;;;2.65;0.93;;;;;;;20.86;36.75;98902.50;4586236;27;20416;-61
2023/12/11 02:20:21;;;;;;;3.25;1.00;;;;;;;20.86;36.81;98896.75;4586475;27;20582;-61
2023/12/11 02:22:32;;;;;;;3.22;1.05;;;;;;;20.85;36.91;98892.25;4589843;27;20038;-62
2023/12/11 02:24:47;;;;;;;2.53;1.00;;;;;;;20.86;36.52;98895.94;4590176;27;20035;-62
2023/12/11 02:26:58;;;;;;;2.95;1.10;;;;;;;20.84;36.52;98887.75;4588616;27;20039;-62
2023/12/11 02:29:08;;;;;;;2.40;0.90;;;;;;;20.83;36.58;98891.84;4587981;27;20040;-61
2023/12/11 02:31:19;;;;;;;2.72;1.00;;;;;;;20.85;36.59;98895.13;4589107;27;20035;-61
2023/12/11 02:33:29;;;;;;;2.45;0.85;;;;;;;20.84;37.00;98876.28;4590118;27;20086;-61
2023/12/11 02:35:41;;;;;;;2.45;0.93;;;;;;;20.84;37.04;98879.13;4588921;27;20040;-61
2023/12/11 02:37:51;;;;;;;2.78;1.05;;;;;;;20.84;36.82;98873.41;4590361;27;20053;-61
2023/12/11 02:40:02;;;;;;;3.55;1.20;;;;;;;20.83;36.54;98871.78;4591517;27;20047;-61
2023/12/11 02:42:13;;;;;;;3.10;1.00;;;;;;;20.84;36.70;98876.28;4589577;27;20032;-61
2023/12/11 02:44:23;;;;;;;1.80;0.90;;;;;;;20.84;37.00;98864.81;4588909;27;20031;-61
2023/12/11 02:46:34;;;;;;;3.17;1.08;;;;;;;20.84;37.10;98870.53;4589805;27;20629;-61
2023/12/11 02:48:44;;;;;;;2.90;1.10;;;;;;;20.83;37.75;98862.34;4587902;27;20036;-61
2023/12/11 02:50:55;;;;;;;1.92;0.90;;;;;;;20.82;37.84;98867.25;4589644;27;20036;-61
2023/12/11 02:53:05;;;;;;;3.08;1.10;;;;;;;20.83;37.67;98862.34;4588125;27;21172;-62
2023/12/11 02:55:16;;;;;;;2.67;1.08;;;;;;;20.83;37.89;98861.09;4589711;27;20023;-61
2023/12/11 02:57:26;;;;;;;3.13;1.10;;;;;;;20.83;37.85;98848.84;4590870;27;20528;-61
2023/12/11 02:59:37;;;;;;;3.38;1.17;;;;;;;20.83;37.67;98863.16;4590465;27;20476;-61
2023/12/11 03:01:47;;;;;;;2.13;1.00;;;;;;;20.82;37.75;98844.31;4591042;27;20515;-61
2023/12/11 03:03:57;;;;;;;2.50;1.10;;;;;;;20.83;37.84;98842.28;4589447;27;20495;-61
2023/12/11 03:06:17;;;;;;;2.70;1.05;;;;;;;20.82;37.43;98835.72;4589814;27;20118;-61
2023/12/11 03:08:27;;;;;;;3.15;1.13;;;;;;;20.82;37.42;98837.78;4563474;27;20060;-61
2023/12/11 03:10:38;;;;;;;3.92;1.10;;;;;;;20.82;37.61;98835.72;4589358;27;20475;-61
2023/12/11 03:12:48;;;;;;;2.40;1.20;;;;;;;20.81;37.52;98836.94;4590587;27;20115;-61
2023/12/11 03:14:59;;;;;;;3.38;1.23;;;;;;;20.82;37.34;98826.31;4571627;27;20079;-61
2023/12/11 03:17:09;;;;;;;2.38;0.95;;;;;;;20.80;37.03;98830.38;4589413;27;20024;-61
2023/12/11 03:19:20;;;;;;;3.42;1.13;;;;;;;20.82;37.50;98826.31;4590962;27;20040;-61
2023/12/11 03:21:30;;;;;;;2.92;1.08;;;;;;;20.79;37.11;98825.06;4589235;27;20145;-61
2023/12/11 03:23:40;;;;;;;2.25;0.88;;;;;;;20.79;37.27;98822.19;4589075;27;20411;-61
2023/12/11 03:25:51;;;;;;;2.33;0.90;;;;;;;20.80;36.90;98824.66;4589847;27;20169;-61
2023/12/11 03:28:01;;;;;;;2.53;1.00;;;;;;;20.80;37.30;98821.00;4589834;27;20068;-61
2023/12/11 03:30:12;;;;;;;2.67;1.02;;;;;;;20.79;36.75;98811.56;4589729;27;20036;-60
2023/12/11 03:32:22;;;;;;;2.25;0.98;;;;;;;20.81;36.56;98814.00;4588483;27;20387;-60
2023/12/11 03:34:33;;;;;;;2.13;0.88;;;;;;;20.80;36.80;98812.38;4587125;27;20472;-60
2023/12/11 03:36:43;;;;;;;2.97;1.00;;;;;;;20.79;36.77;98808.69;4590709;27;20036;-60
2023/12/11 03:38:55;;;;;;;3.03;0.98;;;;;;;20.80;36.93;98807.44;4590566;27;20063;-60
2023/12/11 03:41:05;;;;;;;2.90;1.10;;;;;;;20.80;36.87;98806.66;4588106;27;20039;-60
2023/12/11 03:43:16;;;;;;;3.53;1.02;;;;;;;20.80;37.05;98806.66;4591021;27;20032;-60
2023/12/11 03:45:26;;;;;;;2.92;1.02;;;;;;;20.80;36.54;98800.91;4574179;27;20432;-60
2023/12/11 03:47:37;;;;;;;3.70;1.00;;;;;;;20.80;36.48;98795.19;4589430;27;20119;-60
2023/12/11 03:49:47;;;;;;;1.55;0.82;;;;;;;20.80;36.51;98792.31;4589464;27;20039;-60
2023/12/11 03:51:58;;;;;;;2.70;1.00;;;;;;;20.78;36.46;98795.59;4589372;27;20036;-60
2023/12/11 03:54:08;;;;;;;3.80;1.20;;;;;;;20.79;36.72;98793.53;4588952;27;20396;-60
2023/12/11 03:56:19;;;;;;;3.47;1.20;;;;;;;20.79;36.71;98788.63;4572922;27;20472;-60
2023/12/11 03:58:29;;;;;;;3.33;1.17;;;;;;;20.79;36.36;98796.41;4588449;27;20082;-61
2023/12/11 04:00:39;;;;;;;3.65;1.20;;;;;;;20.80;36.50;98795.19;4578357;27;20513;-60
2023/12/11 04:02:50;;;;;;;2.10;0.95;;;;;;;20.80;36.03;98789.44;4589085;27;20132;-60
2023/12/11 04:05:00;;;;;;;2.35;0.90;;;;;;;20.79;36.26;98784.94;4588787;27;20125;-60
2023/12/11 04:07:11;;;;;;;2.67;0.98;;;;;;;20.78;36.17;98784.13;4587762;27;20031;-61
2023/12/11 04:09:21;;;;;;;2.53;1.00;;;;;;;20.78;36.21;98781.25;4588905;27;20040;-60
2023/12/11 04:11:32;;;;;;;2.08;0.90;;;;;;;20.79;36.09;98782.06;4578003;27;20047;-60
2023/12/11 04:13:43;;;;;;;2.47;0.90;;;;;;;20.78;36.09;98783.31;4589478;27;20953;-60
2023/12/11 04:15:54;;;;;;;3.45;0.93;;;;;;;20.78;36.02;98771.81;4588448;27;20130;-60
2023/12/11 04:18:04;;;;;;;2.38;0.90;;;;;;;20.78;35.92;98777.56;4572217;27;20043;-61
2023/12/11 04:20:14;;;;;;;2.38;0.90;;;;;;;20.78;36.01;98775.53;4590396;27;20025;-60
2023/12/11 04:22:25;;;;;;;2.05;0.93;;;;;;;20.79;35.90;98773.44;4587863;27;20094;-60
2023/12/11 04:24:35;;;;;;;2.80;0.80;;;;;;;20.79;35.98;98782.06;4588293;27;20081;-61
2023/12/11 04:26:46;;;;;;;1.52;0.65;;;;;;;20.79;35.66;98773.44;4588866;27;20039;-60
2023/12/11 04:28:56;;;;;;;2.67;0.80;;;;;;;20.78;35.78;98768.97;4572355;27;20951;-60
2023/12/11 04:31:07;;;;;;;2.20;1.00;;;;;;;20.79;35.51;98773.44;4587328;27;20101;-60
2023/12/11 04:33:17;;;;;;;3.67;0.80;;;;;;;20.79;35.86;98770.59;4586519;27;20039;-61
2023/12/11 04:35:27;;;;;;;2.10;1.00;;;;;;;20.78;35.65;98774.69;4586954;27;20495;-60
2023/12/11 04:37:38;;;;;;;1.45;0.70;;;;;;;20.78;35.68;98764.06;4570472;27;20048;-60
2023/12/11 04:39:48;;;;;;;2.70;0.95;;;;;;;20.77;35.79;98764.47;4588155;27;20054;-60
2023/12/11 04:41:59;;;;;;;2.28;0.90;;;;;;;20.77;35.69;98764.47;4587745;27;20127;-60
2023/12/11 04:44:09;;;;;;;2.10;0.98;;;;;;;20.78;35.80;98751.75;4587685;27;20178;-61
2023/12/11 04:46:20;;;;;;;2.47;1.05;;;;;;;20.77;35.84;98755.88;4589754;27;20567;-60
2023/12/11 04:48:30;;;;;;;2.38;0.90;;;;;;;20.77;35.65;98750.13;4589005;27;20036;-60
2023/12/11 04:50:41;;;;;;;2.28;1.00;;;;;;;20.78;35.48;98754.63;4588207;27;20035;-60
2023/12/11 04:52:51;;;;;;;2.72;1.00;;;;;;;20.78;35.75;98746.03;4587225;27;20032;-61
2023/12/11 04:55:02;;;;;;;2.33;0.88;;;;;;;20.77;35.99;98755.88;4587081;27;20551;-60
2023/12/11 04:57:12;;;;;;;2.83;0.93;;;;;;;20.78;35.94;98751.75;4586555;27;20040;-60
2023/12/11 04:59:22;;;;;;;1.95;0.95;;;;;;;20.77;36.08;98750.94;4589044;27;20039;-60
2023/12/11 05:01:33;;;;;;;1.75;0.70;;;;;;;20.77;36.64;98759.53;4588101;27;20043;-61
2023/12/11 05:03:44;;;;;;;1.55;0.77;;;;;;;20.77;36.54;98750.94;4589212;27;20151;-60
2023/12/11 05:05:54;;;;;;;2.70;0.93;;;;;;;20.78;36.75;98751.75;4588991;27;20594;-60
2023/12/11 05:08:05;;;;;;;2.80;0.93;;;;;;;20.78;36.96;98746.03;4587221;27;20066;-60
2023/12/11 05:10:16;;;;;;;2.10;0.90;;;;;;;20.76;36.76;98734.97;4586868;27;20040;-59
2023/12/11 05:12:26;;;;;;;2.08;0.82;;;;;;;20.76;36.72;98734.13;4588280;27;20036;-60
2023/12/11 05:14:36;;;;;;;1.80;0.80;;;;;;;20.76;37.08;98737.00;4586771;27;20036;-60
2023/12/11 05:16:47;;;;;;;1.48;0.70;;;;;;;20.76;36.98;98737.00;4587517;27;20063;-60
2023/12/11 05:18:57;;;;;;;3.15;0.95;;;;;;;20.76;36.52;98725.53;4587641;27;20151;-60
2023/12/11 05:21:09;;;;;;;2.22;0.85;;;;;;;20.75;36.56;98724.75;4585953;27;20079;-60
2023/12/11 05:23:19;;;;;;;1.45;0.70;;;;;;;20.75;36.46;98723.91;4587919;27;20036;-60
2023/12/11 05:25:30;;;;;;;2.08;0.75;;;;;;;20.75;36.50;98726.78;4590193;27;20547;-60
2023/12/11 05:27:40;;;;;;;2.17;0.90;;;;;;;20.74;36.33;98725.13;4586992;27;20107;-60
2023/12/11 05:29:51;;;;;;;2.65;0.80;;;;;;;20.75;36.02;98715.31;4587953;27;20071;-60
2023/12/11 05:32:01;;;;;;;1.42;0.70;;;;;;;20.75;36.40;98718.19;4587805;27;20155;-60
2023/12/11 05:34:11;;;;;;;2.42;0.77;;;;;;;20.75;36.52;98716.16;4587062;27;20028;-61
2023/12/11 05:36:22;;;;;;;1.58;0.60;;;;;;;20.76;36.16;98711.22;4588562;27;20044;-61
2023/12/11 05:38:32;;;;;;;1.58;0.75;;;;;;;20.75;36.33;98719.00;4585389;27;20032;-60
2023/12/11 05:40:43;;;;;;;2.92;1.23;;;;;;;20.75;35.87;98700.97;4571831;27;20036;-61
2023/12/11 05:42:53;;;;;;;2.08;0.90;;;;;;;20.74;36.34;98699.31;4586875;27;20082;-61
2023/12/11 05:45:04;;;;;;;2.85;0.80;;;;;;;20.75;36.52;98700.97;4587378;27;20054;-61
2023/12/11 05:47:15;;;;;;;1.75;0.70;;;;;;;20.75;36.56;98706.72;4574302;27;20178;-61
2023/12/11 05:49:25;;;;;;;3.15;0.95;;;;;;;20.74;36.64;98697.28;4590249;27;20042;-61
2023/12/11 05:51:36;;;;;;;2.05;0.70;;;;;;;20.74;36.45;98702.19;4586823;27;20072;-61
2023/12/11 05:53:46;;;;;;;2.42;0.85;;;;;;;20.74;36.81;98710.78;4586200;27;20480;-61
2023/12/11 05:55:56;;;;;;;2.45;0.85;;;;;;;20.72;36.67;98722.69;4587971;27;20036;-61
2023/12/11 05:58:07;;;;;;;2.75;0.90;;;;;;;20.73;36.68;98724.34;4591031;27;20427;-61
2023/12/11 06:00:18;;;;;;;1.58;0.65;;;;;;;20.74;37.23;98717.34;4590958;27;20047;-61
2023/12/11 06:02:29;;;;;;;1.77;0.70;;;;;;;20.74;37.25;98716.53;4590302;27;20032;-60
2023/12/11 06:04:39;;;;;;;2.30;0.63;;;;;;;20.73;37.65;98704.25;4591024;27;20445;-61
2023/12/11 06:06:50;;;;;;;1.73;0.70;;;;;;;20.73;37.73;98709.16;4591025;27;20086;-60
2023/12/11 06:09:00;;;;;;;1.73;0.70;;;;;;;20.73;37.48;98714.91;4590115;27;20130;-60
2023/12/11 06:11:11;;;;;;;2.20;0.90;;;;;;;20.73;37.69;98704.25;4593506;27;20096;-60
2023/12/11 06:13:21;;;;;;;1.55;0.90;;;;;;;20.75;37.92;98709.59;4575509;27;20025;-61
2023/12/11 06:15:32;;;;;;;1.52;0.65;;;;;;;20.75;37.85;98707.53;4590098;27;20028;-61
2023/12/11 06:17:42;;;;;;;1.67;0.60;;;;;;;20.75;38.07;98712.44;4589118;27;20036;-61
2023/12/11 06:19:52;;;;;;;1.10;0.52;;;;;;;20.74;38.10;98722.25;4588669;27;20399;-60
2023/12/11 06:22:03;;;;;;;1.20;0.60;;;;;;;20.74;37.91;98720.22;4590380;27;20377;-61
2023/12/11 06:24:14;;;;;;;1.58;0.77;;;;;;;20.74;37.92;98714.50;4576410;27;20556;-61
2023/12/11 06:26:24;;;;;;;2.85;0.90;;;;;;;20.73;38.18;98721.47;4589459;27;20036;-60
2023/12/11 06:28:35;;;;;;;2.00;0.90;;;;;;;20.74;37.86;98722.25;4591332;27;20062;-61
2023/12/11 06:30:45;;;;;;;1.70;0.75;;;;;;;20.73;37.85;98727.19;4563717;27;20119;-61
2023/12/11 06:32:56;;;;;;;2.13;0.77;;;;;;;20.74;38.04;98723.09;4591755;27;20111;-60
2023/12/11 06:35:06;;;;;;;1.45;0.80;;;;;;;20.74;38.05;98731.69;4590926;27;20066;-60
2023/12/11 06:37:17;;;;;;;1.67;0.80;;;;;;;20.73;37.90;98730.06;4589536;27;20047;-61
2023/12/11 06:39:27;;;;;;;1.63;0.68;;;;;;;20.73;38.29;98727.19;4590940;27;20534;-61
2023/12/11 06:41:38;;;;;;;1.67;0.60;;;;;;;20.74;37.94;98719.41;4589451;27;20040;-61
2023/12/11 06:43:52;;;;;;;1.15;0.50;;;;;;;20.73;38.05;98726.38;4590464;27;20040;-61
2023/12/11 06:46:03;;;;;;;1.08;0.50;;;;;;;20.72;37.93;98719.81;4589993;27;20579;-61
2023/12/11 06:48:13;;;;;;;1.02;0.60;;;;;;;20.73;37.88;98709.16;4589815;27;20019;-60
2023/12/11 06:50:23;;;;;;;1.45;0.70;;;;;;;20.73;37.62;98714.91;4588449;27;20459;-61
2023/12/11 06:52:34;;;;;;;1.25;0.50;;;;;;;20.72;37.61;98714.06;4589612;27;20075;-61
2023/12/11 06:54:44;;;;;;;1.38;0.60;;;;;;;20.73;37.60;98721.47;4590801;27;20028;-60
2023/12/11 06:56:55;;;;;;;0.90;0.50;;;;;;;20.73;37.77;98709.16;4590819;27;20055;-61
2023/12/11 06:59:05;;;;;;;1.38;0.70;;;;;;;20.73;37.72;98700.56;4576712;27;20040;-61
2023/12/11 07:01:16;;;;;;;1.48;0.50;;;;;;;20.72;37.47;98710.41;4590914;27;20044;-61
2023/12/11 07:03:27;;;;;;;0.90;0.57;;;;;;;20.74;37.62;98705.06;4590009;27;20036;-60
2023/12/11 07:05:40;;;;;;;1.73;0.57;;;;;;;20.73;37.39;98707.13;4588991;27;20055;-61
2023/12/11 07:07:51;;;;;;;0.95;0.50;;;;;;;20.73;37.44;98704.25;4590278;27;20058;-61
2023/12/11 07:10:04;;;;;;;1.60;0.60;;;;;;;20.73;37.58;98709.16;4589148;27;20048;-60
2023/12/11 07:12:14;;;;;;;0.85;0.50;;;;;;;20.74;37.36;98716.53;4592619;27;20024;-60
2023/12/11 07:14:25;;;;;;;0.95;0.52;;;;;;;20.73;37.78;98709.16;4590485;27;20041;-60
2023/12/11 07:16:35;;;;;;;1.80;0.73;;;;;;;20.73;37.36;98712.88;4580888;27;20109;-60
2023/12/11 07:18:46;;;;;;;1.73;0.60;;;;;;;20.74;37.65;98713.66;4589098;27;20040;-60
2023/12/11 07:20:56;;;;;;;0.70;0.40;;;;;;;20.74;37.39;98716.53;4589199;27;20024;-61
2023/12/11 07:23:07;;;;;;;1.20;0.55;;;;;;;20.73;37.19;98709.16;4590677;27;20044;-58
2023/12/11 07:25:18;;;;;;;1.02;0.57;;;;;;;20.75;37.29;98706.72;4575694;27;20028;-59
2023/12/11 07:27:28;;;;;;;1.65;0.55;;;;;;;20.74;37.55;98711.63;4589844;27;20032;-59
2023/12/11 07:29:39;;;;;;;1.38;0.52;;;;;;;20.73;37.25;98709.16;4574328;27;20040;-59
2023/12/11 07:31:49;;;;;;;2.63;0.80;;;;;;;20.74;37.47;98705.06;4589857;27;20044;-59
2023/12/11 07:34:00;;;;;;;1.90;0.70;;;;;;;20.73;37.25;98714.91;4589745;27;20097;-59
2023/12/11 07:36:11;;;;;;;1.83;0.90;;;;;;;20.74;37.53;98699.31;4579096;27;20102;-59
2023/12/11 07:38:22;;;;;;;1.40;0.70;;;;;;;20.74;37.88;98707.94;4581550;27;20039;-59
2023/12/11 07:40:32;;;;;;;2.28;0.80;;;;;;;20.72;38.02;98704.69;4591028;27;20042;-59
2023/12/11 07:42:43;;;;;;;2.38;0.85;;;;;;;20.74;38.06;98707.94;4590746;27;20038;-59
2023/12/11 07:44:54;;;;;;;1.45;0.80;;;;;;;20.75;37.83;98712.44;4591224;27;20418;-59
2023/12/11 07:47:04;;;;;;;2.15;1.00;;;;;;;20.74;38.13;98700.16;4590395;27;20659;-59
2023/12/11 07:49:14;;;;;;;2.17;1.00;;;;;;;20.75;37.85;98706.72;4591473;27;20092;-60
2023/12/11 07:51:25;;;;;;;1.83;0.75;;;;;;;20.74;37.91;98700.16;4590372;27;20043;-59
2023/12/11 07:53:35;;;;;;;1.85;0.85;;;;;;;20.75;38.08;98713.28;4589517;27;20105;-59
2023/12/11 07:55:46;;;;;;;1.98;0.80;;;;;;;20.73;38.17;98701.41;4574130;27;20032;-59
2023/12/11 07:57:57;;;;;;;2.13;0.80;;;;;;;20.73;38.10;98709.16;4579983;27;20098;-59
2023/12/11 08:00:08;;;;;;;2.08;0.80;;;;;;;20.74;38.04;98699.31;4591446;27;20024;-59
2023/12/11 08:02:19;;;;;;;1.67;0.70;;;;;;;20.74;37.78;98699.31;4589736;27;20045;-59
2023/12/11 08:04:29;;;;;;;1.90;0.80;;;;;;;20.73;37.95;98691.97;4587884;27;20161;-59
2023/12/11 08:06:41;;;;;;;1.67;0.75;;;;;;;20.73;37.93;98691.97;4589406;27;20043;-58
2023/12/11 08:08:52;;;;;;;1.50;0.90;;;;;;;20.74;38.02;98687.84;4590284;27;20047;-59
2023/12/11 08:11:02;;;;;;;2.38;0.80;;;;;;;20.73;38.00;98698.53;4590744;27;20043;-58
2023/12/11 08:13:13;;;;;;;1.98;0.90;;;;;;;20.73;38.18;98694.84;4591567;27;20471;-58
2023/12/11 08:15:24;;;;;;;1.80;0.80;;;;;;;20.73;38.27;98697.69;4589944;27;20036;-57
2023/12/11 08:17:34;;;;;;;2.03;0.93;;;;;;;20.74;38.24;98693.59;4589092;27;20036;-58
2023/12/11 08:19:44;;;;;;;1.13;0.50;;;;;;;20.74;38.16;98703.03;4588852;27;20073;-58
2023/12/11 08:21:55;;;;;;;1.80;0.80;;;;;;;20.76;38.17;98702.59;4589597;27;20040;-57
2023/12/11 08:24:05;;;;;;;1.75;0.68;;;;;;;20.75;38.17;98690.34;4590434;27;20147;-58
2023/12/11 08:26:18;;;;;;;2.63;0.80;;;;;;;20.74;37.79;98702.19;4591338;27;20031;-57
2023/12/11 08:28:28;;;;;;;2.05;0.80;;;;;;;20.75;37.65;98706.72;4589454;27;21210;-59
2023/12/11 08:30:39;;;;;;;1.73;0.63;;;;;;;20.76;37.72;98708.34;4588992;27;20031;-59
2023/12/11 08:32:49;;;;;;;2.03;1.00;;;;;;;20.76;37.85;98714.06;4587954;27;20055;-57
2023/12/11 08:35:03;;;;;;;1.35;0.68;;;;;;;20.77;38.27;98704.25;4590687;27;20027;-58
2023/12/11 08:37:13;;;;;;;2.17;0.95;;;;;;;20.77;38.55;98712.84;4588656;27;20412;-58
2023/12/11 08:39:24;;;;;;;2.25;1.20;;;;;;;20.74;38.29;98703.03;4589166;27;20032;-60
2023/12/11 08:41:36;;;;;;;2.03;1.20;;;;;;;20.75;38.70;98698.94;4588254;27;20028;-58
2023/12/11 08:43:46;;;;;;;2.35;1.30;;;;;;;20.75;38.49;98696.06;4574141;27;20115;-58
2023/12/11 08:45:57;;;;;;;1.95;0.90;;;;;;;20.75;38.51;98692.38;4588626;27;20141;-57
2023/12/11 08:48:07;;;;;;;1.50;0.70;;;;;;;20.77;38.70;98695.66;4589156;27;20043;-57
2023/12/11 08:50:18;;;;;;;2.28;0.82;;;;;;;20.77;39.03;98687.84;4590702;27;20035;-57
2023/12/11 08:52:28;;;;;;;1.65;0.80;;;;;;;20.76;38.72;98694.00;4591957;27;20048;-58
2023/12/11 08:54:39;;;;;;;1.50;0.80;;;;;;;20.76;38.79;98686.22;4588288;27;20147;-57
2023/12/11 08:56:49;;;;;;;1.33;0.70;;;;;;;20.77;38.51;98698.53;4589812;27;20123;-58
2023/12/11 08:59:00;;;;;;;2.15;0.80;;;;;;;20.77;38.46;98684.19;4588136;27;20086;-58
2023/12/11 09:01:10;;;;;;;1.02;0.70;;;;;;;20.76;38.73;98696.88;4587809;27;20503;-58
2023/12/11 09:03:21;;;;;;;1.50;0.75;;;;;;;20.76;38.87;98694.81;4572690;27;20040;-58
2023/12/11 09:05:32;;;;;;;1.52;0.70;;;;;;;20.76;38.68;98696.88;4589912;27;20028;-59
2023/12/11 09:07:43;;;;;;;1.90;0.70;;;;;;;20.74;38.63;98682.13;4573362;27;20491;-58
2023/12/11 09:09:53;;;;;;;1.17;0.70;;;;;;;20.75;38.57;98695.25;4589809;27;20024;-58
2023/12/11 09:12:05;;;;;;;2.35;0.98;;;;;;;20.76;38.46;98694.00;4578402;27;20043;-57
2023/12/11 09:14:15;;;;;;;2.08;0.73;;;;;;;20.76;38.11;98708.34;4588849;27;20027;-58
2023/12/11 09:16:26;;;;;;;1.20;0.70;;;;;;;20.76;38.38;98702.59;4571685;27;20370;-58
2023/12/11 09:18:37;;;;;;;0.75;0.40;;;;;;;20.75;37.89;98704.69;4589755;27;20036;-58
2023/12/11 09:20:47;;;;;;;1.23;0.60;;;;;;;20.74;38.37;98707.94;4587757;27;20496;-58
2023/12/11 09:22:58;;;;;;;1.05;0.60;;;;;;;20.75;38.16;98707.53;4588259;27;20428;-58
2023/12/11 09:25:09;;;;;;;1.15;0.80;;;;;;;20.75;38.02;98703.84;4585567;27;20020;-58
2023/12/11 09:27:19;;;;;;;1.70;1.10;;;;;;;20.74;38.20;98703.03;4587912;27;20548;-58
2023/12/11 09:29:30;;;;;;;1.98;0.90;;;;;;;20.76;38.16;98706.31;4588553;27;20038;-58
2023/12/11 09:31:40;;;;;;;1.20;0.70;;;;;;;20.76;38.35;98708.34;4589441;27;20122;-58
2023/12/11 09:33:51;;;;;;;0.82;0.60;;;;;;;20.78;38.25;98717.34;4589436;27;20085;-59
2023/12/11 09:36:01;;;;;;;1.17;0.60;;;;;;;20.78;38.53;98717.34;4588087;27;20035;-59
2023/12/11 09:38:12;;;;;;;2.10;0.70;;;;;;;20.77;38.31;98710.78;4590002;27;20430;-59
2023/12/11 09:40:22;;;;;;;1.10;0.60;;;;;;;20.80;38.39;98715.69;4588306;27;20933;-58
2023/12/11 09:42:34;;;;;;;1.95;0.90;;;;;;;20.81;38.44;98713.66;4588376;27;20055;-58
2023/12/11 09:44:47;;;;;;;1.27;0.70;;;;;;;20.80;38.49;98718.56;4589496;27;20027;-58
2023/12/11 09:47:20;;;;;;;1.23;0.70;;;;;;;20.82;38.46;98723.09;4587912;27;20609;-58
2023/12/11 09:49:30;;;;;;;1.80;1.10;;;;;;;20.82;38.37;98723.09;4590286;27;20673;-57
2023/12/11 09:51:41;;;;;;;2.03;0.80;;;;;;;20.83;38.17;98734.13;4589092;27;20063;-59
2023/12/11 09:53:53;;;;;;;1.20;0.63;;;;;;;20.85;38.29;98742.31;4586470;27;20114;-58
2023/12/11 09:56:04;;;;;;;1.33;0.80;;;;;;;20.85;38.68;98751.75;4588526;27;20083;-59
2023/12/11 09:58:15;;;;;;;1.50;0.70;;;;;;;20.85;39.05;98746.03;4587253;27;20020;-59
2023/12/11 10:00:27;;;;;;;2.67;0.80;;;;;;;20.84;38.89;98747.22;4586858;27;20082;-58
2023/12/11 10:02:41;;;;;;;2.03;0.85;;;;;;;20.85;39.07;98753.78;4587330;27;20028;-58
2023/12/11 10:05:09;;;;;;;1.65;0.70;;;;;;;20.85;39.15;98753.78;4589422;27;20155;-57
2023/12/11 10:07:19;;;;;;;1.48;0.65;;;;;;;20.86;39.15;98756.25;4590862;27;20040;-55
2023/12/11 10:09:35;;;;;;;1.25;0.65;;;;;;;20.89;39.58;98746.00;4587424;27;20028;-57
2023/12/11 10:12:00;;;;;;;1.65;0.80;;;;;;;20.89;39.71;98749.69;4589762;27;21016;-55
2023/12/11 10:14:14;;;;;;;0.90;0.60;;;;;;;20.92;39.80;98750.88;4589112;27;20048;-57
2023/12/11 10:16:29;;;;;;;0.82;0.50;;;;;;;20.92;39.49;98760.31;4589121;27;20085;-58